Time;durP1;ratioP1;P1;durP2;ratioP2;P2;SDS_P1;SDS_P2;PMS_P1;PMS_P2;Temp;Humidity;BMP_temperature;BMP_pressure;BME280_temperature;BME280_humidity;BME280_pressure;Samples;Min_cycle;Max_cycle;Signal;HPM_P1;HPM_P2
2021/07/22 00:00:43;;;;;;;0.70;0.60;;;;;;;14.97;100.00;60947.75;5047110;28;20452;-75
2021/07/22 00:03:10;;;;;;;0.80;0.70;;;;;;;14.91;100.00;59949.41;5047871;28;20455;-75
2021/07/22 00:05:38;;;;;;;0.70;0.60;;;;;;;14.87;100.00;58622.44;5047666;28;20562;-75
2021/07/22 00:08:11;;;;;;;0.70;0.60;;;;;;;14.90;100.00;56972.31;5028796;28;20484;-75
2021/07/22 00:10:38;;;;;;;0.80;0.70;;;;;;;14.81;100.00;55972.63;5037132;28;20569;-75
2021/07/22 00:13:05;;;;;;;0.70;0.60;;;;;;;14.78;100.00;54648.22;5025682;28;20561;-75
2021/07/22 00:15:33;;;;;;;0.80;0.70;;;;;;;14.71;100.00;53322.06;5025924;28;20455;-76
2021/07/22 00:18:01;;;;;;;0.70;0.60;;;;;;;14.69;100.00;52330.31;5025714;28;20460;-75
2021/07/22 00:20:27;;;;;;;0.77;0.70;;;;;;;14.64;100.00;51005.94;5029104;28;20450;-76
2021/07/22 00:22:55;;;;;;;0.70;0.60;;;;;;;14.58;100.00;49352.31;5045877;28;20458;-75
2021/07/22 00:25:23;;;;;;;0.70;0.67;;;;;;;14.60;100.00;47706.66;5045449;28;20494;-75
2021/07/22 00:27:51;;;;;;;0.80;0.60;;;;;;;14.58;100.00;46058.38;5031432;28;20483;-74
2021/07/22 00:30:20;;;;;;;0.77;0.70;;;;;;;14.55;100.00;43752.19;5015692;28;21515;-76
2021/07/22 00:32:47;;;;;;;0.70;0.70;;;;;;;14.53;100.00;41777.31;5027880;28;20470;-75
2021/07/22 00:35:15;;;;;;;0.77;0.70;;;;;;;14.49;100.00;39803.00;5027782;28;20586;-75
2021/07/22 00:37:42;;;;;;;0.73;0.63;;;;;;;14.39;100.00;36511.78;5029012;28;20450;-75
2021/07/22 00:40:10;;;;;;;0.80;0.70;;;;;;;14.33;100.00;33012.59;5045674;28;20473;-75
2021/07/22 00:42:56;;;;;;;0.80;0.70;;;;;;;14.28;100.00;30652.03;5044669;28;20471;-75
2021/07/22 00:45:24;;;;;;;0.70;0.70;;;;;;;14.32;100.00;27548.53;5047266;28;20526;-74
2021/07/22 00:47:51;;;;;;;0.80;0.70;;;;;;;14.25;100.00;23755.84;5048877;28;20462;-76
2021/07/22 00:50:18;;;;;;;0.80;0.70;;;;;;;14.23;100.00;20335.03;5045480;28;20505;-76
2021/07/22 00:52:45;;;;;;;0.80;0.70;;;;;;;14.24;100.00;16643.38;5048715;28;20454;-75
2021/07/22 00:55:13;;;;;;;0.80;0.70;;;;;;;14.19;100.00;13593.25;5032169;28;20480;-75
2021/07/22 00:57:41;;;;;;;0.70;0.70;;;;;;;14.19;100.00;9881.22;5050685;28;20451;-75
2021/07/22 01:00:10;;;;;;;1.67;1.57;;;;;;;14.17;100.00;5619.34;5046949;28;20456;-74
2021/07/22 01:02:40;;;;;;;0.70;0.70;;;;;;;14.15;100.00;2509.72;5049719;28;20450;-75
2021/07/22 01:05:09;;;;;;;0.80;0.70;;;;;;;14.13;100.00;-946.41;5033378;28;20468;-75
2021/07/22 01:07:38;;;;;;;0.70;0.60;;;;;;;14.12;100.00;-3942.97;5048828;28;20475;-76
2021/07/22 01:10:09;;;;;;;0.80;0.70;;;;;;;14.09;100.00;-6119.50;5048068;28;20492;-75
2021/07/22 01:12:38;;;;;;;0.80;0.73;;;;;;;14.09;100.00;-7730.75;5031771;28;20496;-75
2021/07/22 01:15:05;;;;;;;0.70;0.60;;;;;;;14.12;100.00;-9159.41;5049311;28;21045;-75
2021/07/22 01:17:43;;;;;;;0.70;0.60;;;;;;;14.12;100.00;-10857.63;5035668;28;20461;-76
2021/07/22 01:20:16;;;;;;;0.70;0.60;;;;;;;14.14;100.00;-12398.69;5026957;28;20504;-76
2021/07/22 01:22:44;;;;;;;0.80;0.70;;;;;;;14.10;100.00;-13703.50;5029096;28;20942;-75
2021/07/22 01:25:12;;;;;;;1.40;1.03;;;;;;;14.11;100.00;-14796.38;5032096;28;20479;-74
2021/07/22 01:27:41;;;;;;;0.70;0.60;;;;;;;14.06;100.00;-15822.25;5016073;28;20482;-76
2021/07/22 01:30:11;;;;;;;0.70;0.60;;;;;;;14.06;100.00;-16954.72;5038317;28;20841;-74
2021/07/22 01:32:39;;;;;;;0.70;0.60;;;;;;;14.03;100.00;-17866.69;5031750;28;20480;-75
2021/07/22 01:35:08;;;;;;;0.80;0.80;;;;;;;14.00;100.00;-18702.84;5028989;28;20451;-74
2021/07/22 01:37:39;;;;;;;0.70;0.70;;;;;;;13.99;100.00;-19357.72;5010447;28;20875;-76
2021/07/22 01:40:09;;;;;;;0.70;0.63;;;;;;;13.95;100.00;-19900.84;5029634;28;20457;-75
2021/07/22 01:42:37;;;;;;;0.70;0.60;;;;;;;14.08;100.00;-20254.19;5028887;28;20536;-76
2021/07/22 01:45:06;;;;;;;0.80;0.80;;;;;;;14.23;100.00;-20091.72;5034855;28;20491;-75
2021/07/22 01:47:41;;;;;;;0.80;0.70;;;;;;;14.29;100.00;-19805.97;5027936;28;20525;-73
2021/07/22 01:50:09;;;;;;;0.80;0.70;;;;;;;14.27;100.00;-19505.69;5028495;28;20495;-75
2021/07/22 01:52:41;;;;;;;0.70;0.70;;;;;;;14.29;100.00;-19284.25;5031032;28;20560;-74
2021/07/22 01:55:10;;;;;;;0.70;0.60;;;;;;;14.26;100.00;-19144.88;5044029;28;20510;-74
2021/07/22 01:57:59;;;;;;;0.70;0.70;;;;;;;14.26;100.00;-19001.19;5047777;28;20463;-75
2021/07/22 02:00:33;;;;;;;0.70;0.60;;;;;;;14.27;100.00;-18618.38;5024709;28;21000;-74
2021/07/22 02:03:01;;;;;;;0.70;0.70;;;;;;;14.28;100.00;-18356.28;5011966;28;20479;-72
2021/07/22 02:05:38;;;;;;;0.70;0.60;;;;;;;14.33;100.00;-18185.97;5028465;28;20641;-75
2021/07/22 02:08:06;;;;;;;0.70;0.60;;;;;;;14.34;100.00;-18029.88;5041087;28;20513;-75
2021/07/22 02:10:34;;;;;;;0.70;0.60;;;;;;;14.33;100.00;-17911.13;5030885;28;20821;-75
2021/07/22 02:13:01;;;;;;;0.70;0.70;;;;;;;14.29;100.00;-17907.59;5047008;28;20478;-75
2021/07/22 02:15:41;;;;;;;0.70;0.67;;;;;;;14.31;100.00;-17819.88;5046386;28;20895;-73
2021/07/22 02:18:11;;;;;;;0.70;0.63;;;;;;;14.22;100.00;-17767.56;5047336;28;20471;-75
2021/07/22 02:20:39;;;;;;;0.70;0.60;;;;;;;14.22;100.00;-17775.13;5019032;28;20463;-74
2021/07/22 02:23:08;;;;;;;0.70;0.70;;;;;;;14.24;100.00;-17755.28;5011534;28;20471;-75
2021/07/22 02:25:53;;;;;;;0.80;0.70;;;;;;;14.22;100.00;-17815.34;5028072;28;20463;-75
2021/07/22 02:28:20;;;;;;;0.70;0.60;;;;;;;14.21;100.00;-17668.88;5027059;28;20484;-75
2021/07/22 02:30:47;;;;;;;1.50;1.40;;;;;;;14.16;100.00;-17607.28;5036692;28;20467;-75
2021/07/22 02:33:15;;;;;;;0.70;0.60;;;;;;;14.12;100.00;-17631.59;5026291;28;20456;-75
2021/07/22 02:35:42;;;;;;;1.77;1.67;;;;;;;14.14;100.00;-17778.38;5047197;28;20479;-75
2021/07/22 02:38:48;;;;;;;0.70;0.70;;;;;;;14.07;100.00;-18099.38;5029817;28;20460;-75
2021/07/22 02:41:15;;;;;;;0.80;0.80;;;;;;;14.00;100.00;-18249.25;5028757;28;20450;-77
2021/07/22 02:43:43;;;;;;;0.70;0.60;;;;;;;14.02;100.00;-18511.81;5034713;28;20523;-75
2021/07/22 02:46:11;;;;;;;0.70;0.70;;;;;;;13.99;100.00;-18755.53;5046455;28;20931;-75
2021/07/22 02:48:49;;;;;;;0.80;0.70;;;;;;;14.10;100.00;-19020.00;5030660;28;20475;-76
2021/07/22 02:51:16;;;;;;;0.80;0.70;;;;;;;14.10;100.00;-19188.97;5046642;28;20481;-72
2021/07/22 02:53:43;;;;;;;0.70;0.60;;;;;;;14.15;100.00;-19243.00;5048404;28;20954;-76
2021/07/22 02:56:30;;;;;;;0.70;0.60;;;;;;;14.12;100.00;-19330.56;5046519;28;20556;-75
2021/07/22 02:59:01;;;;;;;0.70;0.60;;;;;;;14.08;100.00;-19337.16;5048341;28;20467;-75
2021/07/22 03:01:32;;;;;;;0.70;0.67;;;;;;;14.05;100.00;-19485.06;5046516;28;20468;-74
2021/07/22 03:04:03;;;;;;;0.70;0.60;;;;;;;14.01;100.00;-19617.59;5037669;28;20468;-75
2021/07/22 03:06:39;;;;;;;0.70;0.70;;;;;;;14.00;100.00;-19710.66;5039213;28;20485;-76
2021/07/22 03:09:09;;;;;;;0.80;0.70;;;;;;;13.92;100.00;-19751.47;5045541;28;20479;-75
2021/07/22 03:11:43;;;;;;;0.70;0.70;;;;;;;13.81;100.00;-20071.00;5046135;28;20493;-75
2021/07/22 03:14:11;;;;;;;0.70;0.63;;;;;;;13.87;100.00;-20150.63;5046766;28;20469;-76
2021/07/22 03:16:41;;;;;;;0.70;0.70;;;;;;;13.89;100.00;-20206.53;5030378;28;20483;-74
2021/07/22 03:19:11;;;;;;;0.70;0.70;;;;;;;13.88;100.00;-20251.47;5048496;28;20462;-76
2021/07/22 03:21:50;;;;;;;0.70;0.60;;;;;;;13.68;100.00;-19735.41;5040710;28;20886;-72
2021/07/22 03:24:35;;;;;;;0.70;0.67;;;;;;;13.71;100.00;-19789.06;5027712;28;20459;-74
2021/07/22 03:27:09;;;;;;;0.70;0.70;;;;;;;13.69;100.00;-19934.44;5026864;28;20472;-76
2021/07/22 03:29:36;;;;;;;0.70;0.60;;;;;;;13.60;100.00;-20188.88;5025479;28;20567;-75
2021/07/22 03:32:04;;;;;;;0.70;0.70;;;;;;;13.53;100.00;-20514.34;5026338;28;20971;-75
2021/07/22 03:34:33;;;;;;;0.70;0.60;;;;;;;13.65;100.00;-20698.66;5026675;28;20570;-75
2021/07/22 03:37:07;;;;;;;0.70;0.70;;;;;;;13.62;100.00;-20843.81;5028252;28;20821;-73
2021/07/22 03:39:35;;;;;;;0.70;0.60;;;;;;;13.64;100.00;-20899.84;5026180;28;20957;-73
2021/07/22 03:42:05;;;;;;;0.70;0.60;;;;;;;13.74;100.00;-20912.53;5025095;28;20465;-75
2021/07/22 03:44:51;;;;;;;0.70;0.60;;;;;;;13.74;100.00;-20902.59;5035489;28;20467;-74
2021/07/22 03:47:18;;;;;;;0.70;0.60;;;;;;;13.75;100.00;-20852.38;5043021;28;20837;-75
2021/07/22 03:49:49;;;;;;;0.80;0.70;;;;;;;13.76;100.00;-20847.63;5046389;28;20857;-75
2021/07/22 03:52:26;;;;;;;0.70;0.60;;;;;;;13.69;100.00;-20926.25;5030756;28;20467;-75
2021/07/22 03:54:55;;;;;;;0.80;0.70;;;;;;;13.76;100.00;-20998.66;5032960;28;20971;-75
2021/07/22 03:57:24;;;;;;;0.70;0.70;;;;;;;13.86;100.00;-21058.53;5026210;28;20468;-75
2021/07/22 03:59:54;;;;;;;0.70;0.60;;;;;;;13.97;100.00;-21061.69;5028242;28;20522;-75
2021/07/22 04:02:21;;;;;;;0.70;0.60;;;;;;;13.98;100.00;-21019.81;5019909;28;20476;-75
2021/07/22 04:04:49;;;;;;;0.70;0.60;;;;;;;13.95;100.00;-20910.56;5025127;28;20468;-75
2021/07/22 04:07:19;;;;;;;0.77;0.70;;;;;;;13.92;100.00;-20773.78;5027513;28;20468;-75
2021/07/22 04:09:57;;;;;;;0.70;0.70;;;;;;;13.95;100.00;-20742.00;5025403;28;20503;-75
2021/07/22 04:12:52;;;;;;;0.70;0.67;;;;;;;14.03;100.00;-20698.69;5026850;28;20453;-75
2021/07/22 04:15:29;;;;;;;0.70;0.70;;;;;;;14.08;100.00;-20664.66;5010793;28;20461;-75
2021/07/22 04:18:14;;;;;;;0.70;0.63;;;;;;;14.15;100.00;-20646.50;5024578;28;20475;-75
2021/07/22 04:21:07;;;;;;;0.70;0.60;;;;;;;14.19;100.00;-20602.22;5029572;28;20461;-75
2021/07/22 04:24:10;;;;;;;0.70;0.60;;;;;;;14.25;100.00;-20472.69;4977838;28;20465;-76
2021/07/22 04:26:52;;;;;;;0.70;0.60;;;;;;;14.28;100.00;-20433.19;5023170;28;20472;-74
2021/07/22 04:29:38;;;;;;;0.70;0.60;;;;;;;14.21;100.00;-20391.00;5046221;28;20490;-76
2021/07/22 04:32:08;;;;;;;0.70;0.60;;;;;;;14.30;100.00;-20222.03;5050572;28;20450;-76
2021/07/22 04:34:47;;;;;;;0.70;0.63;;;;;;;14.39;100.00;-20108.47;5049548;28;20467;-75
2021/07/22 04:37:30;;;;;;;0.70;0.70;;;;;;;14.41;100.00;-20033.38;5049153;28;20955;-75
2021/07/22 04:40:15;;;;;;;0.70;0.70;;;;;;;14.44;100.00;-19933.31;5049606;28;20446;-75
2021/07/22 04:42:59;;;;;;;0.80;0.70;;;;;;;14.52;100.00;-19821.66;5049370;28;20475;-74
2021/07/22 04:45:47;;;;;;;0.70;0.70;;;;;;;14.60;100.00;-19712.88;5050663;28;20498;-75
2021/07/22 04:48:35;;;;;;;0.70;0.60;;;;;;;14.67;100.00;-19608.63;5047224;28;20944;-76
2021/07/22 04:51:28;;;;;;;0.70;0.60;;;;;;;14.73;100.00;-19602.56;5041673;28;20460;-75
2021/07/22 04:54:11;;;;;;;0.80;0.70;;;;;;;14.80;100.00;-19561.44;5050734;28;20443;-76
2021/07/22 04:56:39;;;;;;;0.70;0.60;;;;;;;14.87;100.00;-19479.94;5047849;28;20451;-75
2021/07/22 04:59:06;;;;;;;0.80;0.80;;;;;;;14.91;100.00;-19415.19;5049285;28;20485;-76
2021/07/22 05:01:34;;;;;;;0.70;0.60;;;;;;;14.82;100.00;-19561.94;5043606;28;20521;-76
2021/07/22 05:04:05;;;;;;;0.70;0.63;;;;;;;15.07;100.00;-19217.16;5030099;28;20453;-76
2021/07/22 05:06:56;;;;;;;0.70;0.60;;;;;;;15.17;100.00;-19053.00;5030208;28;20874;-75
2021/07/22 05:09:35;;;;;;;0.70;0.67;;;;;;;15.24;100.00;-18850.19;5030421;28;20511;-74
2021/07/22 05:12:09;;;;;;;0.70;0.60;;;;;;;15.37;100.00;-18537.50;5028874;28;20465;-75
2021/07/22 05:15:06;;;;;;;0.70;0.67;;;;;;;15.43;100.00;-18412.72;5029465;28;20919;-74
2021/07/22 05:18:02;;;;;;;0.70;0.70;;;;;;;15.88;100.00;-17833.88;5043365;28;20509;-75
2021/07/22 05:20:37;;;;;;;0.70;0.60;;;;;;;16.08;100.00;-17038.94;5045798;28;20822;-75
2021/07/22 05:23:23;;;;;;;0.80;0.80;;;;;;;16.31;100.00;-15942.66;5048945;28;20543;-75
2021/07/22 05:26:04;;;;;;;0.70;0.60;;;;;;;16.50;100.00;-14796.28;5049056;28;20464;-74
2021/07/22 05:29:04;;;;;;;0.70;0.60;;;;;;;16.71;100.00;-13443.97;5043471;28;20477;-75
2021/07/22 05:32:03;;;;;;;0.70;0.63;;;;;;;16.92;100.00;-11960.69;5023169;28;20472;-75
2021/07/22 05:35:11;;;;;;;0.80;0.70;;;;;;;17.07;100.00;-10305.13;4988590;28;20547;-74
2021/07/22 05:38:05;;;;;;;0.70;0.70;;;;;;;17.28;100.00;-8310.34;4980872;28;20461;-75
2021/07/22 05:40:32;;;;;;;0.80;0.70;;;;;;;17.37;100.00;-6508.41;5023964;28;20473;-75
2021/07/22 05:42:59;;;;;;;0.70;0.60;;;;;;;17.51;100.00;-4888.25;5049446;28;20882;-75
2021/07/22 05:45:26;;;;;;;0.70;0.60;;;;;;;17.65;100.00;-3111.19;5032069;28;20467;-75
2021/07/22 05:47:53;;;;;;;0.70;0.70;;;;;;;17.72;100.00;-1567.16;5028947;28;20495;-74
2021/07/22 05:50:20;;;;;;;0.70;0.60;;;;;;;17.89;100.00;73.00;5029567;28;20501;-75
2021/07/22 05:52:47;;;;;;;0.70;0.70;;;;;;;17.99;100.00;1545.72;5013899;28;20523;-75
2021/07/22 05:55:16;;;;;;;0.80;0.70;;;;;;;18.00;100.00;2873.06;5049350;28;20456;-75
2021/07/22 05:57:43;;;;;;;0.80;0.77;;;;;;;18.11;100.00;4273.88;5039366;28;20945;-76
2021/07/22 06:00:12;;;;;;;0.70;0.70;;;;;;;18.26;100.00;5671.31;5029867;28;20499;-76
2021/07/22 06:02:40;;;;;;;0.80;0.70;;;;;;;18.49;100.00;7160.88;5012010;28;20462;-75
2021/07/22 06:05:09;;;;;;;0.70;0.70;;;;;;;18.70;100.00;9076.88;5028073;28;20466;-74
2021/07/22 06:07:36;;;;;;;1.20;1.10;;;;;;;18.86;100.00;10394.41;5027499;28;20503;-74
2021/07/22 06:10:04;;;;;;;0.70;0.70;;;;;;;19.06;100.00;12088.69;5029097;28;21019;-74
2021/07/22 06:12:32;;;;;;;0.80;0.70;;;;;;;19.03;100.00;12754.66;5027468;28;20461;-75
2021/07/22 06:14:59;;;;;;;0.70;0.60;;;;;;;19.01;100.00;12833.75;5027997;28;20957;-75
2021/07/22 06:17:26;;;;;;;0.70;0.60;;;;;;;19.06;100.00;11437.41;5027648;28;20502;-75
2021/07/22 06:19:53;;;;;;;0.80;0.70;;;;;;;19.12;100.00;10121.28;5029411;28;20797;-75
2021/07/22 06:22:20;;;;;;;0.80;0.70;;;;;;;19.20;100.00;7524.78;5027959;28;20482;-76
2021/07/22 06:24:48;;;;;;;0.70;0.67;;;;;;;19.20;100.00;3546.78;5027513;28;20999;-75
2021/07/22 06:27:38;;;;;;;0.70;0.60;;;;;;;19.34;100.00;-1414.44;5046636;28;20451;-75
2021/07/22 06:30:07;;;;;;;0.80;0.70;;;;;;;19.35;100.00;-9279.50;5047295;28;20504;-76
2021/07/22 06:32:34;;;;;;;0.70;0.70;;;;;;;19.57;100.00;-16715.50;5047864;28;20508;-76
2021/07/22 06:35:03;;;;;;;0.80;0.73;;;;;;;19.75;100.00;-21217.06;5046341;28;21804;-76
2021/07/22 06:37:41;;;;;;;0.80;0.70;;;;;;;19.83;100.00;-21218.97;5048723;28;20476;-74
2021/07/22 06:40:09;;;;;;;0.70;0.70;;;;;;;20.21;100.00;-21229.34;5030974;28;20541;-76
2021/07/22 06:42:38;;;;;;;0.73;0.63;;;;;;;20.24;100.00;-21230.16;5035461;28;20423;-76
2021/07/22 06:45:07;;;;;;;0.70;0.70;;;;;;;20.49;100.00;-21236.88;5030285;28;20534;-75
2021/07/22 06:47:36;;;;;;;0.73;0.67;;;;;;;20.65;100.00;-21241.09;5046010;28;20555;-75
2021/07/22 06:50:05;;;;;;;0.80;0.80;;;;;;;20.58;100.00;-21239.06;5034751;28;20477;-75
2021/07/22 06:52:34;;;;;;;1.00;0.90;;;;;;;20.82;100.00;-21245.59;5029507;28;20449;-75
2021/07/22 06:55:01;;;;;;;0.73;0.63;;;;;;;20.95;100.00;-21249.16;5028258;28;20956;-76
2021/07/22 06:57:28;;;;;;;0.80;0.70;;;;;;;20.94;100.00;-21248.75;5027301;28;20893;-74
2021/07/22 06:59:56;;;;;;;0.80;0.80;;;;;;;21.11;100.00;-21253.25;5027526;28;20434;-75
2021/07/22 07:02:24;;;;;;;0.70;0.60;;;;;;;21.30;100.00;-21258.28;5027723;28;20445;-75
2021/07/22 07:04:53;;;;;;;1.30;1.20;;;;;;;21.48;100.00;-21263.19;5040321;28;20434;-74
2021/07/22 07:07:20;;;;;;;0.80;0.70;;;;;;;21.54;100.00;-21264.69;5045465;28;21054;-74
2021/07/22 07:09:48;;;;;;;0.80;0.63;;;;;;;21.89;100.00;-21274.25;5029946;28;20434;-74
2021/07/22 07:12:15;;;;;;;0.73;0.63;;;;;;;22.00;100.00;-21277.09;5041804;28;20843;-76
2021/07/22 07:14:42;;;;;;;0.70;0.60;;;;;;;21.73;100.00;-21269.75;5027980;28;20423;-75
2021/07/22 07:17:11;;;;;;;0.80;0.70;;;;;;;21.95;100.00;-21275.75;5010311;28;20420;-75
2021/07/22 07:19:39;;;;;;;0.80;0.70;;;;;;;21.91;100.00;-21274.66;5026728;28;20551;-75
2021/07/22 07:22:06;;;;;;;0.77;0.60;;;;;;;21.98;100.00;-21276.41;5025209;28;20555;-74
2021/07/22 07:24:33;;;;;;;0.80;0.70;;;;;;;22.01;100.00;-21277.38;5028510;28;20514;-75
2021/07/22 07:27:01;;;;;;;1.50;0.77;;;;;;;22.06;100.00;-21278.75;5026259;28;20427;-74
2021/07/22 07:29:29;;;;;;;0.70;0.60;;;;;;;21.95;100.00;-21275.88;5030753;28;20813;-75
2021/07/22 07:32:00;;;;;;;0.80;0.60;;;;;;;21.75;100.00;-21270.44;5028631;28;20509;-75
2021/07/22 07:34:30;;;;;;;0.80;0.60;;;;;;;21.95;100.00;-21275.88;5031395;28;21057;-75
2021/07/22 07:36:57;;;;;;;0.80;0.70;;;;;;;22.23;100.00;-21283.09;5042816;28;20999;-74
2021/07/22 07:39:24;;;;;;;0.73;0.70;;;;;;;22.45;100.00;-21288.97;5046635;28;20464;-75
2021/07/22 07:41:51;;;;;;;0.80;0.63;;;;;;;22.15;100.00;-21281.19;5028113;28;20424;-75
2021/07/22 07:44:18;;;;;;;0.77;0.63;;;;;;;21.77;100.00;-21270.97;5024630;28;20449;-74
2021/07/22 07:46:46;;;;;;;1.10;1.00;;;;;;;21.98;100.00;-21276.56;5025913;28;20472;-75
2021/07/22 07:49:13;;;;;;;0.70;0.60;;;;;;;21.99;100.00;-21276.84;5025945;28;20502;-75
2021/07/22 07:51:41;;;;;;;0.70;0.60;;;;;;;22.28;100.00;-21284.59;5028066;28;20959;-74
2021/07/22 07:54:10;;;;;;;0.73;0.60;;;;;;;22.86;100.00;-21299.97;5035291;28;20603;-74
2021/07/22 07:56:37;;;;;;;0.70;0.60;;;;;;;22.53;100.00;-21291.28;5046314;28;20456;-75
2021/07/22 07:59:04;;;;;;;0.80;0.60;;;;;;;22.37;100.00;-21287.06;5042945;28;20917;-75
2021/07/22 08:01:33;;;;;;;0.80;0.70;;;;;;;22.64;100.00;-21294.28;5040399;28;20473;-75
2021/07/22 08:04:00;;;;;;;0.80;0.67;;;;;;;22.74;100.00;-21296.84;5022367;28;20435;-75
2021/07/22 08:06:27;;;;;;;0.70;0.60;;;;;;;23.10;100.00;-21306.50;5027410;28;20884;-74
2021/07/22 08:08:55;;;;;;;0.80;0.70;;;;;;;23.33;100.00;-21312.63;5026187;28;20934;-75
2021/07/22 08:11:22;;;;;;;0.80;0.70;;;;;;;23.47;100.00;-21316.16;5026456;28;20468;-76
2021/07/22 08:13:49;;;;;;;1.20;0.93;;;;;;;23.48;100.00;-21316.56;5026240;28;20439;-75
2021/07/22 08:16:17;;;;;;;0.80;0.70;;;;;;;23.44;100.00;-21315.34;5025942;28;20457;-75
2021/07/22 08:18:45;;;;;;;0.80;0.60;;;;;;;23.62;100.00;-21320.38;5026731;28;20459;-74
2021/07/22 08:21:12;;;;;;;0.90;0.80;;;;;;;23.81;100.00;-21325.28;5023809;28;20871;-74
2021/07/22 08:23:40;;;;;;;1.67;1.57;;;;;;;24.02;100.00;-21330.84;5025998;28;20516;-75
2021/07/22 08:26:09;;;;;;;1.10;1.00;;;;;;;24.62;100.00;-21346.75;5026077;28;20923;-74
2021/07/22 08:28:36;;;;;;;0.70;0.60;;;;;;;25.24;100.00;-21363.28;5035461;28;20470;-73
2021/07/22 08:31:04;;;;;;;0.70;0.60;;;;;;;25.66;100.00;-21374.53;5037917;28;21487;-76
2021/07/22 08:33:31;;;;;;;0.80;0.70;;;;;;;25.59;100.00;-21372.50;5046842;28;20971;-75
2021/07/22 08:35:58;;;;;;;0.70;0.60;;;;;;;25.22;100.00;-21362.88;5047267;28;20506;-74
2021/07/22 08:38:25;;;;;;;0.70;0.60;;;;;;;25.26;100.00;-21363.84;5028726;28;20463;-74
2021/07/22 08:40:54;;;;;;;0.70;0.50;;;;;;;25.32;100.00;-21365.31;5027295;28;20460;-74
2021/07/22 08:43:26;;;;;;;0.70;0.60;;;;;;;26.07;100.00;-21385.25;5046217;28;20443;-74
2021/07/22 08:45:54;;;;;;;0.73;0.60;;;;;;;26.02;100.00;-21384.16;5033265;28;20471;-75
2021/07/22 08:48:21;;;;;;;0.80;0.60;;;;;;;26.93;100.00;-21408.13;5010947;28;20468;-75
2021/07/22 08:50:48;;;;;;;0.70;0.60;;;;;;;26.46;100.00;-21395.81;5025703;28;20472;-74
2021/07/22 08:53:15;;;;;;;0.70;0.60;;;;;;;27.51;100.00;-21423.41;5027093;28;20937;-72
2021/07/22 08:55:45;;;;;;;0.70;0.60;;;;;;;28.09;100.00;-21438.78;5026437;28;20452;-74
2021/07/22 08:58:12;;;;;;;0.70;0.50;;;;;;;28.01;100.00;-21436.75;5023252;28;20461;-72
2021/07/22 09:00:42;;;;;;;0.70;0.50;;;;;;;28.23;100.00;-21442.56;5032831;28;20468;-73
2021/07/22 09:03:12;;;;;;;0.80;0.80;;;;;;;29.41;100.00;-21473.59;5009624;28;20465;-73
2021/07/22 09:05:39;;;;;;;0.70;0.50;;;;;;;30.39;100.00;-21499.44;5030439;28;21773;-72
2021/07/22 09:08:06;;;;;;;1.00;0.90;;;;;;;29.59;100.00;-21478.56;5022999;28;20492;-74
2021/07/22 09:10:33;;;;;;;0.70;0.50;;;;;;;29.69;100.00;-21481.13;5030478;28;20807;-72
2021/07/22 09:13:00;;;;;;;0.70;0.50;;;;;;;28.29;100.00;-21444.19;5028621;28;20555;-71
2021/07/22 09:15:31;;;;;;;0.70;0.50;;;;;;;27.50;100.00;-21423.13;5027982;28;20465;-72
2021/07/22 09:18:21;;;;;;;0.70;0.50;;;;;;;27.68;100.00;-21427.97;5031905;28;20552;-73
2021/07/22 09:20:49;;;;;;;0.70;0.50;;;;;;;27.77;100.00;-21430.41;5048989;28;20443;-72
2021/07/22 09:23:20;;;;;;;0.70;0.50;;;;;;;27.99;100.00;-21436.09;5032010;28;20452;-73
2021/07/22 09:25:48;;;;;;;0.70;0.60;;;;;;;27.48;100.00;-21422.59;5042231;28;20535;-74
2021/07/22 09:28:17;;;;;;;0.80;0.60;;;;;;;27.30;100.00;-21418.00;5047706;28;20447;-75
2021/07/22 09:30:55;;;;;;;0.70;0.60;;;;;;;27.12;100.00;-21413.13;5038542;28;20469;-75
2021/07/22 09:33:37;;;;;;;0.70;0.60;;;;;;;26.70;100.00;-21402.03;5032873;28;21240;-73
2021/07/22 09:36:06;;;;;;;0.70;0.60;;;;;;;27.61;100.00;-21426.09;5032751;28;20820;-72
2021/07/22 09:38:33;;;;;;;0.77;0.63;;;;;;;28.00;100.00;-21436.38;5027959;28;20445;-72
2021/07/22 09:41:00;;;;;;;0.80;0.60;;;;;;;28.46;100.00;-21448.66;5031879;28;20461;-72
2021/07/22 09:43:38;;;;;;;0.70;0.50;;;;;;;28.51;100.00;-21450.00;5029237;28;20465;-72
2021/07/22 09:46:05;;;;;;;0.70;0.50;;;;;;;29.05;100.00;-21464.28;5029405;28;20866;-71
2021/07/22 09:48:32;;;;;;;0.70;0.50;;;;;;;30.32;100.00;-21497.81;5040371;28;20518;-72
2021/07/22 09:51:00;;;;;;;0.80;0.50;;;;;;;30.47;100.00;-21501.59;5046213;28;20472;-72
2021/07/22 09:53:28;;;;;;;0.80;0.50;;;;;;;30.12;100.00;-21492.44;5043399;28;20465;-71
2021/07/22 09:55:56;;;;;;;0.80;0.50;;;;;;;30.82;100.00;-21510.72;5047063;28;20487;-72
2021/07/22 09:58:24;;;;;;;0.80;0.50;;;;;;;31.38;100.00;-21525.50;5049087;28;20970;-73
2021/07/22 10:00:55;;;;;;;0.80;0.50;;;;;;;31.40;100.00;-21526.19;5048729;28;20462;-73
2021/07/22 10:03:23;;;;;;;0.80;0.50;;;;;;;32.03;100.00;-21542.56;5037943;28;20830;-73
2021/07/22 10:05:55;;;;;;;0.80;0.50;;;;;;;32.41;100.00;-21552.63;5029465;28;21034;-73
2021/07/22 10:08:25;;;;;;;0.80;0.50;;;;;;;31.15;100.00;-21519.59;5028851;28;20452;-73
2021/07/22 10:10:55;;;;;;;0.80;0.50;;;;;;;32.13;100.00;-21545.22;5027078;28;20885;-71
2021/07/22 10:13:27;;;;;;;0.80;0.50;;;;;;;31.34;100.00;-21524.56;5027862;28;20559;-73
2021/07/22 10:15:57;;;;;;;0.80;0.50;;;;;;;31.84;100.00;-21537.59;5028445;28;20514;-73
2021/07/22 10:18:26;;;;;;;0.80;0.50;;;;;;;31.79;100.00;-21536.38;5026463;28;20547;-73
2021/07/22 10:20:57;;;;;;;0.80;0.50;;;;;;;31.57;100.00;-21530.59;5011802;28;20957;-72
2021/07/22 10:23:25;;;;;;;0.80;0.50;;;;;;;32.05;100.00;-21543.22;5011714;28;20460;-72
2021/07/22 10:25:53;;;;;;;0.80;0.50;;;;;;;32.67;100.00;-21559.56;5045902;28;20528;-72
2021/07/22 10:28:20;;;;;;;0.80;0.50;;;;;;;33.27;100.00;-21575.13;5047803;28;20501;-73
2021/07/22 10:30:48;;;;;;;0.80;0.50;;;;;;;31.36;100.00;-21525.09;5046579;28;20463;-73
2021/07/22 10:33:19;;;;;;;0.80;0.50;;;;;;;30.29;100.00;-21497.00;5047929;28;20455;-72
2021/07/22 10:35:52;;;;;;;0.80;0.60;;;;;;;32.27;100.00;-21548.84;5048705;28;20463;-72
2021/07/22 10:38:24;;;;;;;0.80;0.50;;;;;;;31.78;100.00;-21536.13;5046564;28;20470;-73
2021/07/22 10:40:55;;;;;;;0.80;0.50;;;;;;;29.76;100.00;-21483.03;5031253;28;20558;-73
2021/07/22 10:43:39;;;;;;;0.80;0.50;;;;;;;29.48;100.00;-21475.59;5029332;28;20571;-75
2021/07/22 10:46:09;;;;;;;0.80;0.60;;;;;;;29.28;100.00;-21470.34;5044367;28;20464;-73
2021/07/22 10:48:39;;;;;;;0.80;0.50;;;;;;;29.07;100.00;-21464.69;5039809;28;20479;-72
2021/07/22 10:51:07;;;;;;;1.00;0.67;;;;;;;29.36;100.00;-21472.50;5046751;28;20472;-73
2021/07/22 10:53:42;;;;;;;0.70;0.50;;;;;;;28.66;100.00;-21453.91;5030009;28;20463;-72
2021/07/22 10:56:13;;;;;;;0.70;0.50;;;;;;;28.65;100.00;-21453.63;5031785;28;20456;-71
2021/07/22 10:58:54;;;;;;;0.70;0.50;;;;;;;30.29;100.00;-21496.88;5026708;28;20555;-72
2021/07/22 11:01:56;;;;;;;0.70;0.50;;;;;;;31.61;100.00;-21531.53;5034984;28;20471;-72
2021/07/22 11:04:40;;;;;;;0.77;0.50;;;;;;;32.17;100.00;-21546.31;5031416;28;20460;-71
2021/07/22 11:07:18;;;;;;;0.77;0.50;;;;;;;32.55;100.00;-21556.38;5015189;28;20473;-75
2021/07/22 11:10:04;;;;;;;0.80;0.50;;;;;;;32.24;100.00;-21548.31;5034732;28;20457;-73
2021/07/22 11:12:44;;;;;;;0.80;0.50;;;;;;;32.77;100.00;-21562.13;5039858;28;20471;-72
2021/07/22 11:15:16;;;;;;;1.17;1.07;;;;;;;30.93;100.00;-21513.69;5042082;28;20505;-73
2021/07/22 11:17:45;;;;;;;0.80;0.50;;;;;;;30.53;100.00;-21503.19;5021404;28;20836;-72
2021/07/22 11:20:42;;;;;;;0.80;0.53;;;;;;;30.37;100.00;-21499.03;5045890;28;20962;-72
2021/07/22 11:23:16;;;;;;;1.77;1.10;;;;;;;29.56;100.00;-21477.75;5025696;28;20472;-71
2021/07/22 11:25:48;;;;;;;1.00;0.93;;;;;;;28.36;100.00;-21446.06;5040976;28;20482;-72
2021/07/22 11:28:23;;;;;;;0.70;0.50;;;;;;;28.40;100.00;-21447.16;5041057;28;20474;-72
2021/07/22 11:31:00;;;;;;;1.67;1.17;;;;;;;28.18;100.00;-21441.22;5041886;28;20458;-72
2021/07/22 11:33:30;;;;;;;0.70;0.60;;;;;;;28.02;100.00;-21436.91;5019834;28;20452;-72
2021/07/22 11:35:59;;;;;;;0.90;0.70;;;;;;;27.39;100.00;-21420.41;5048040;28;20452;-72
2021/07/22 11:38:26;;;;;;;0.70;0.50;;;;;;;27.18;100.00;-21414.88;5031226;28;21015;-73
2021/07/22 11:40:54;;;;;;;0.70;0.50;;;;;;;27.09;100.00;-21412.31;5027761;28;20459;-73